Nora Springs, IA (50458)

11:28 PM CST on February 22, 2017 (GMT -0600)
East Meroa | | Change Station

Elev 1180 ft 43.25 °N, 92.91 °W | Updated 23 seconds ago

Overcast
Overcast
42.1 °F
Feels Like 35 °F
N
12.5
Wind Variable Wind from West

Today
High -- | Low -- °F
--% Chance of Precip.
Yesterday
High -- | Low -- °F
Precip. -- in
Pressure 29.77 in
Visibility 10.0 miles
Clouds Overcast 700 ft
Windchill 35 °F
Dew Point 40 °F
Humidity 91%
Rainfall 0.00 in
Snow Depth Not available.
6:58 AM 5:52 PM
Waning Crescent, 12% visible
METAR KMCW 230453Z AUTO 31015KT 10SM OVC007 05/03 A2977 RMK AO2 PK WND 31028/0418 SLP080 T00500033
Pressure 29.77 in
Visibility 10.0 miles
Clouds Overcast 700 ft
Windchill 35 °F
Dew Point 40 °F
Humidity 91%
Rainfall 0.00 in
Snow Depth Not available.
6:58 AM 5:52 PM
Waning Crescent, 12% visible
METAR KMCW 230453Z AUTO 31015KT 10SM OVC007 05/03 A2977 RMK AO2 PK WND 31028/0418 SLP080 T00500033

Get Your Daily Forecast Email!

Thanks for signing up!

Be on the lookout for a verification email in your inbox.

You'll start receiving the daily forecast at 8 AM.

×

10-Day Weather Forecast

Almanac

Astronomy

Feb. 22, 2017 Rise Set
Actual Time
Civil Twilight
Nautical Twilight
Astronomical Twilight
Moon
Length of Visible Light
Length of Day
Tomorrow will be .
, % of the Moon is Illuminated

Today's Extremes

State Highs State Lows

Community

WunderPhotos

Upload Photos

1,962,540 photos uploaded!

WunderBlog® & News

Nearby

Air Quality

  Air Quality AQ Index Pollutant
Not available.

Snow Depth

Station Depth Elevation

Earthquake Activity

City Distance Mag. Time & Date
Minimum magnitude displayed is 2.5.

Coastal Water Temperatures

Place Temperature

Stations

Nearby Weather Stations

Station Location Temp. Windchill Dew Point Humidity Wind Precip. Elev Updated Type
                   

Watches & Warnings

There are currently no watches in effect.